Página principal
METAR-TAF:

METAR-TAF

Aeroportos :

Aeroporto Internacional de Guilin Liangjiang

Guilin, China

latitude: 25-20N, longitude: 110-18E, altura: 166 m

Observação actual do tempo

O boletim foi feito há 26 minutos, às 16:00 UTC
Vento 2 kt com direcção variável
Temperatura 24°C
Humidade 89%
Pressão 1014 hPa
Visibilidade: 6000 m

METAR: ZGKL 231600Z VRB01MPS 6000 NSC 24/22 Q1014 NOSIG

Hora: 00:26 (16:26 UTC)

Previsão

O boletim foi feito há 7 horas e 22 minutos, às 09:04 UTC
Previsão válida de 23 às 12 UTC a 24 às 12 UTC
Vento 6 kt de nordeste
Visibilidade: 6000 m
Nuvens dispersasa uma altura de 5000 ft
Temporariamente
de 24 às 06 UTC a 24 às 12 UTC
Poucas nuvensa uma altura de 3300 ft, Cumulonimbus.

TAF: ZGKL 230904Z 2312/2412 05003MPS 6000 SCT050 TX32/2407Z TN22/2322Z TEMPO 2406/2412 FEW033CB

Observações e previsões do tempo de mais de 4000 aeroportos (mensagens METAR e TAF).

As estações disponíveis são os pontos amarelos e vermelhos sobre o mapa.

Mova o rato sobre o mapa para ver o nome da estação.

Depois clique no ponto para visualizar as observações e previsões meteorológicas.

Para alterar o mapa : clique nos botões verdes com uma cruz preta para aumentar o zoom; no botão verde com uma pitada de zoom; ou nas setas verdes para mapas adjacentes.


METAR-TAF: